Time;durP1;ratioP1;P1;durP2;ratioP2;P2;SDS_P1;SDS_P2;PMS_P1;PMS_P2;Temp;Humidity;BMP_temperature;BMP_pressure;BME280_temperature;BME280_humidity;BME280_pressure;Samples;Min_cycle;Max_cycle;Signal;HPM_P1;HPM_P2
2021/12/29 00:01:23;;;;;;;111.60;22.63;;;;;;;;;;5079276;27;20371;-73
2021/12/29 00:03:49;;;;;;;82.47;19.50;;;;;;;;;;5094136;28;20044;-75
2021/12/29 00:06:15;;;;;;;84.53;22.02;;;;;;;;;;5105256;27;20124;-74
2021/12/29 00:08:41;;;;;;;86.65;21.23;;;;;;;;;;5087189;28;20109;-75
2021/12/29 00:11:08;;;;;;;119.90;23.58;;;;;;;;;;5098877;28;20395;-75
2021/12/29 00:13:34;;;;;;;94.75;20.50;;;;;;;;;;5098412;28;20527;-74
2021/12/29 00:16:00;;;;;;;93.97;21.67;;;;;;;;;;5103556;27;20505;-74
2021/12/29 00:18:30;;;;;;;158.55;26.70;;;;;;;;;;5085210;28;20580;-76
2021/12/29 00:20:57;;;;;;;104.05;23.38;;;;;;;;;;5083283;28;20142;-80
2021/12/29 00:23:23;;;;;;;91.40;22.52;;;;;;;;;;5102871;28;20040;-77
2021/12/29 00:25:50;;;;;;;114.65;23.40;;;;;;;;;;5104763;28;20051;-77
2021/12/29 00:28:16;;;;;;;122.70;24.00;;;;;;;;;;5105360;28;20039;-77
2021/12/29 00:30:43;;;;;;;120.15;25.23;;;;;;;;;;5102572;28;20410;-78
2021/12/29 00:33:09;;;;;;;145.60;26.17;;;;;;;;;;5096304;27;20559;-78
2021/12/29 00:35:38;;;;;;;139.15;24.35;;;;;;;;;;5125739;27;20050;-78
2021/12/29 00:38:06;;;;;;;139.25;25.77;;;;;;;;;;5102659;28;20096;-79
2021/12/29 00:40:33;;;;;;;136.48;24.25;;;;;;;;;;5076878;28;20090;-78
2021/12/29 00:42:59;;;;;;;137.65;25.20;;;;;;;;;;5116292;27;20099;-78
2021/12/29 00:45:26;;;;;;;153.40;25.65;;;;;;;;;;5100876;27;20047;-79
2021/12/29 00:47:53;;;;;;;167.10;27.10;;;;;;;;;;5128121;27;20040;-77
2021/12/29 00:50:19;;;;;;;172.07;27.08;;;;;;;;;;5123845;27;20043;-77
2021/12/29 00:52:46;;;;;;;194.45;29.00;;;;;;;;;;5104268;28;20039;-78
2021/12/29 00:55:13;;;;;;;170.77;28.63;;;;;;;;;;5102314;28;20136;-77
2021/12/29 00:57:39;;;;;;;204.20;28.95;;;;;;;;;;5125374;27;20435;-78
2021/12/29 01:00:14;;;;;;;194.85;29.23;;;;;;;;;;5127506;27;20063;-78
2021/12/29 01:02:40;;;;;;;243.23;31.73;;;;;;;;;;5128512;27;20039;-77
2021/12/29 01:05:07;;;;;;;270.52;31.60;;;;;;;;;;5126097;27;20035;-77
2021/12/29 01:07:33;;;;;;;236.15;31.58;;;;;;;;;;5129257;27;20043;-77
2021/12/29 01:10:00;;;;;;;226.75;31.67;;;;;;;;;;5128352;27;20043;-81
2021/12/29 01:12:26;;;;;;;286.85;34.50;;;;;;;;;;5105876;27;20131;-78
2021/12/29 01:14:55;;;;;;;299.50;34.70;;;;;;;;;;5128106;27;20043;-77
2021/12/29 01:17:22;;;;;;;334.02;37.08;;;;;;;;;;5122201;27;20126;-77
2021/12/29 01:19:49;;;;;;;327.23;37.42;;;;;;;;;;5123560;27;20071;-78
2021/12/29 01:22:16;;;;;;;251.32;35.47;;;;;;;;;;5126836;27;20059;-78
2021/12/29 01:24:46;;;;;;;362.90;37.88;;;;;;;;;;5122463;27;20039;-77
2021/12/29 01:27:12;;;;;;;385.20;39.50;;;;;;;;;;5123678;27;20047;-78
2021/12/29 01:29:38;;;;;;;298.77;36.35;;;;;;;;;;5130572;27;20035;-77
2021/12/29 01:32:04;;;;;;;365.95;37.72;;;;;;;;;;5123426;27;20055;-78
2021/12/29 01:34:31;;;;;;;394.92;40.63;;;;;;;;;;5123657;27;20055;-78
2021/12/29 01:36:57;;;;;;;366.90;40.28;;;;;;;;;;5125812;27;20051;-77
2021/12/29 01:39:24;;;;;;;391.85;41.03;;;;;;;;;;5131120;27;20482;-77
2021/12/29 01:41:52;;;;;;;340.35;42.33;;;;;;;;;;5105013;27;20039;-79
2021/12/29 01:44:21;;;;;;;387.33;43.45;;;;;;;;;;5113421;27;20035;-77
2021/12/29 01:46:47;;;;;;;286.02;39.03;;;;;;;;;;5120914;27;20050;-77
2021/12/29 01:49:14;;;;;;;271.05;37.70;;;;;;;;;;5129769;27;20382;-77
2021/12/29 01:51:49;;;;;;;317.23;39.80;;;;;;;;;;5127708;27;20046;-80
2021/12/29 01:54:23;;;;;;;239.27;35.60;;;;;;;;;;5107483;27;20072;-80
2021/12/29 01:56:49;;;;;;;;;;;;;;;;;;5107942;27;20052;-78
2021/12/29 01:59:16;;;;;;;238.00;33.85;;;;;;;;;;5126816;27;20141;-77
2021/12/29 02:01:42;;;;;;;293.65;36.78;;;;;;;;;;5105864;27;20078;-77
2021/12/29 02:04:08;;;;;;;248.30;33.78;;;;;;;;;;5102560;27;20057;-78
2021/12/29 02:06:34;;;;;;;295.00;35.08;;;;;;;;;;5096119;27;20195;-77
2021/12/29 02:09:01;;;;;;;270.83;33.58;;;;;;;;;;5099585;27;20401;-77
2021/12/29 02:11:30;;;;;;;216.75;32.03;;;;;;;;;;5103345;27;20435;-77
2021/12/29 02:14:00;;;;;;;209.50;30.67;;;;;;;;;;5122612;27;20043;-78
2021/12/29 02:16:27;;;;;;;202.88;30.10;;;;;;;;;;5154227;27;20774;-77
2021/12/29 02:18:54;;;;;;;185.10;27.85;;;;;;;;;;5100968;27;20498;-78
2021/12/29 02:21:24;;;;;;;196.35;27.83;;;;;;;;;;5116910;27;20044;-79
2021/12/29 02:24:35;;;;;;;119.38;22.77;;;;;;;;;;5127620;27;20498;-77
2021/12/29 02:26:43;;;;;;;123.00;23.23;;;;;;;;;;5122021;27;20039;-77
2021/12/29 02:29:10;;;;;;;140.82;23.40;;;;;;;;;;5120448;27;20039;-78
2021/12/29 02:31:37;;;;;;;149.05;23.83;;;;;;;;;;5125315;27;20039;-78
2021/12/29 02:34:04;;;;;;;136.00;22.73;;;;;;;;;;5081345;28;20058;-77
2021/12/29 02:36:30;;;;;;;118.50;22.75;;;;;;;;;;5106964;28;20126;-78
2021/12/29 02:38:57;;;;;;;137.82;23.27;;;;;;;;;;5100576;28;20040;-78
2021/12/29 02:41:27;;;;;;;116.10;22.92;;;;;;;;;;5082187;28;20456;-78
2021/12/29 02:43:59;;;;;;;135.13;23.88;;;;;;;;;;5100193;28;20490;-81
2021/12/29 02:46:26;;;;;;;122.80;22.33;;;;;;;;;;5072432;28;20135;-78
2021/12/29 02:48:59;;;;;;;137.65;23.67;;;;;;;;;;5085267;28;20070;-78
2021/12/29 02:51:25;;;;;;;151.25;25.80;;;;;;;;;;5087644;28;20130;-77
2021/12/29 02:53:51;;;;;;;160.38;26.10;;;;;;;;;;5080423;28;20036;-77
2021/12/29 02:56:17;;;;;;;145.75;26.05;;;;;;;;;;5087642;28;20048;-78
2021/12/29 02:58:43;;;;;;;144.23;26.88;;;;;;;;;;5083543;28;20048;-77
2021/12/29 03:01:12;;;;;;;126.90;27.08;;;;;;;;;;5081940;28;20434;-78
2021/12/29 03:03:38;;;;;;;137.18;27.40;;;;;;;;;;5105827;28;20040;-77
2021/12/29 03:06:05;;;;;;;145.43;27.73;;;;;;;;;;5103941;28;20059;-77
2021/12/29 03:08:31;;;;;;;126.20;27.42;;;;;;;;;;5089776;28;20050;-79
2021/12/29 03:10:57;;;;;;;127.47;30.00;;;;;;;;;;5132692;27;20137;-79
2021/12/29 03:13:24;;;;;;;125.03;29.27;;;;;;;;;;5086571;28;20067;-78
2021/12/29 03:15:51;;;;;;;151.15;31.58;;;;;;;;;;5086780;28;20108;-78
2021/12/29 03:18:17;;;;;;;132.32;30.13;;;;;;;;;;5089637;28;20090;-81
2021/12/29 03:20:44;;;;;;;115.53;31.67;;;;;;;;;;5102814;28;20093;-79
2021/12/29 03:23:10;;;;;;;152.77;34.28;;;;;;;;;;5104943;28;20039;-78
2021/12/29 03:25:36;;;;;;;138.57;33.30;;;;;;;;;;5083055;28;20384;-79
2021/12/29 03:28:03;;;;;;;135.93;34.63;;;;;;;;;;5077025;28;20589;-78
2021/12/29 03:30:30;;;;;;;174.57;36.55;;;;;;;;;;5089690;28;20394;-78
2021/12/29 03:33:05;;;;;;;136.77;34.85;;;;;;;;;;5097091;28;20078;-81
2021/12/29 03:35:31;;;;;;;158.98;37.92;;;;;;;;;;5079669;28;20074;-78
2021/12/29 03:37:58;;;;;;;152.68;38.33;;;;;;;;;;5082750;28;20169;-78
2021/12/29 03:40:25;;;;;;;136.07;36.65;;;;;;;;;;5081076;28;20036;-78
2021/12/29 03:42:51;;;;;;;169.50;37.92;;;;;;;;;;5098823;28;20043;-78
2021/12/29 03:45:17;;;;;;;171.23;39.53;;;;;;;;;;5104281;28;20071;-82
2021/12/29 03:47:43;;;;;;;188.18;37.85;;;;;;;;;;5086991;28;20052;-79
2021/12/29 03:50:09;;;;;;;164.60;36.55;;;;;;;;;;5103661;28;20145;-78
2021/12/29 03:52:35;;;;;;;120.80;32.78;;;;;;;;;;5089952;28;20043;-79
2021/12/29 03:55:02;;;;;;;180.13;36.63;;;;;;;;;;5101498;28;20040;-78
2021/12/29 03:57:28;;;;;;;135.93;33.13;;;;;;;;;;5099835;28;20131;-79
2021/12/29 03:59:54;;;;;;;152.73;33.08;;;;;;;;;;5104450;28;20105;-79
2021/12/29 04:02:20;;;;;;;176.05;34.92;;;;;;;;;;5103273;28;20118;-80
2021/12/29 04:04:48;;;;;;;130.65;31.10;;;;;;;;;;5082676;28;20036;-79
2021/12/29 04:07:14;;;;;;;145.02;31.50;;;;;;;;;;5086528;28;20123;-78
2021/12/29 04:09:40;;;;;;;130.43;30.35;;;;;;;;;;5078649;28;20040;-78
2021/12/29 04:12:06;;;;;;;147.27;31.20;;;;;;;;;;5093796;28;20048;-79
2021/12/29 04:14:32;;;;;;;112.47;30.05;;;;;;;;;;5078737;28;20048;-79
2021/12/29 04:17:08;;;;;;;141.85;31.80;;;;;;;;;;5103582;28;20499;-79
2021/12/29 04:22:18;;;;;;;117.25;29.50;;;;;;;;;;5085502;28;20089;-78
2021/12/29 04:24:44;;;;;;;115.95;30.75;;;;;;;;;;5081878;28;20067;-78
2021/12/29 04:27:10;;;;;;;147.85;33.17;;;;;;;;;;5077956;28;20067;-78
2021/12/29 04:29:36;;;;;;;164.00;35.85;;;;;;;;;;5070675;28;20043;-79
2021/12/29 04:32:02;;;;;;;157.38;33.97;;;;;;;;;;5089327;27;20450;-79
2021/12/29 04:34:28;;;;;;;139.30;32.88;;;;;;;;;;5101877;27;20043;-78
2021/12/29 04:36:54;;;;;;;147.25;33.25;;;;;;;;;;5103755;27;20106;-78
2021/12/29 04:39:20;;;;;;;105.72;31.70;;;;;;;;;;5094352;27;20043;-79
2021/12/29 04:41:47;;;;;;;125.65;32.63;;;;;;;;;;5103423;27;20083;-80
2021/12/29 04:44:13;;;;;;;153.20;35.08;;;;;;;;;;5099560;27;20070;-81
2021/12/29 04:46:44;;;;;;;138.98;33.33;;;;;;;;;;5093199;27;20164;-79
2021/12/29 04:49:12;;;;;;;110.93;32.58;;;;;;;;;;5124428;27;20053;-79
2021/12/29 04:51:44;;;;;;;121.13;33.67;;;;;;;;;;5124168;27;20640;-79
2021/12/29 04:54:10;;;;;;;146.60;35.70;;;;;;;;;;5122472;27;20050;-79
2021/12/29 04:56:36;;;;;;;183.20;38.55;;;;;;;;;;5114420;27;20193;-79
2021/12/29 04:59:03;;;;;;;183.10;38.47;;;;;;;;;;5120639;27;20039;-79
2021/12/29 05:01:30;;;;;;;148.05;36.95;;;;;;;;;;5100063;27;20054;-80
2021/12/29 05:03:56;;;;;;;151.93;36.65;;;;;;;;;;5119757;27;20043;-79
2021/12/29 05:09:06;;;;;;;115.95;34.40;;;;;;;;;;5136449;27;20036;-78
2021/12/29 05:11:32;;;;;;;168.18;36.75;;;;;;;;;;5127329;27;20049;-79
2021/12/29 05:13:59;;;;;;;156.30;37.33;;;;;;;;;;5117286;27;20051;-79
2021/12/29 05:16:28;;;;;;;138.30;35.10;;;;;;;;;;5117847;27;20045;-78
2021/12/29 05:18:54;;;;;;;130.88;35.22;;;;;;;;;;5113291;27;20075;-78
2021/12/29 05:21:21;;;;;;;157.70;35.78;;;;;;;;;;5125224;27;20049;-79
2021/12/29 05:23:47;;;;;;;168.25;39.95;;;;;;;;;;5118642;27;20244;-78
2021/12/29 05:26:13;;;;;;;134.20;36.50;;;;;;;;;;5140321;27;20371;-79
2021/12/29 05:28:39;;;;;;;159.35;37.92;;;;;;;;;;5091950;27;20489;-79
2021/12/29 05:31:05;;;;;;;142.70;36.92;;;;;;;;;;5123235;27;20043;-79
2021/12/29 05:33:32;;;;;;;137.57;36.20;;;;;;;;;;5118893;27;20501;-79
2021/12/29 05:35:58;;;;;;;139.65;36.85;;;;;;;;;;5127535;27;20043;-79
2021/12/29 05:38:24;;;;;;;178.18;39.97;;;;;;;;;;5106729;27;20081;-79
2021/12/29 05:40:52;;;;;;;127.95;35.92;;;;;;;;;;5094837;27;20057;-78
2021/12/29 05:43:18;;;;;;;151.55;36.20;;;;;;;;;;5114628;27;20053;-77
2021/12/29 05:45:44;;;;;;;115.97;34.65;;;;;;;;;;5142085;27;20046;-79
2021/12/29 05:48:10;;;;;;;118.85;34.10;;;;;;;;;;5129105;27;20057;-81
2021/12/29 05:50:36;;;;;;;128.38;34.65;;;;;;;;;;5125964;27;20042;-79
2021/12/29 05:53:03;;;;;;;142.65;36.20;;;;;;;;;;5105100;27;20039;-79
2021/12/29 05:55:29;;;;;;;142.07;35.55;;;;;;;;;;5109882;27;20042;-77
2021/12/29 05:57:55;;;;;;;123.57;34.50;;;;;;;;;;5108537;27;20065;-82
2021/12/29 06:00:22;;;;;;;125.60;33.53;;;;;;;;;;5126875;27;20092;-80
2021/12/29 06:02:49;;;;;;;124.78;33.47;;;;;;;;;;5125814;27;20050;-80
2021/12/29 06:05:15;;;;;;;148.52;35.47;;;;;;;;;;5118920;27;20043;-81
2021/12/29 06:07:41;;;;;;;139.80;34.72;;;;;;;;;;5107410;27;20047;-79
2021/12/29 06:10:08;;;;;;;129.82;34.50;;;;;;;;;;5106730;27;20045;-82
2021/12/29 06:12:35;;;;;;;154.98;36.30;;;;;;;;;;5100274;27;20035;-80
2021/12/29 06:15:01;;;;;;;201.75;40.28;;;;;;;;;;5107427;27;20043;-82
2021/12/29 06:17:27;;;;;;;151.13;37.38;;;;;;;;;;5122469;27;20111;-77
2021/12/29 06:19:53;;;;;;;196.02;38.95;;;;;;;;;;5126298;27;20050;-77
2021/12/29 06:22:19;;;;;;;234.98;41.45;;;;;;;;;;5124250;27;20046;-78
2021/12/29 06:24:51;;;;;;;187.55;38.85;;;;;;;;;;5113774;27;20126;-77
2021/12/29 06:27:17;;;;;;;188.73;39.25;;;;;;;;;;5127121;27;20055;-78
2021/12/29 06:29:43;;;;;;;208.13;40.20;;;;;;;;;;5153498;27;20082;-78
2021/12/29 06:32:09;;;;;;;181.18;38.20;;;;;;;;;;5102886;27;20062;-78
2021/12/29 06:34:36;;;;;;;255.20;40.97;;;;;;;;;;5114518;27;20498;-82
2021/12/29 06:37:08;;;;;;;185.93;37.10;;;;;;;;;;5122666;27;20046;-78
2021/12/29 06:39:35;;;;;;;206.63;38.33;;;;;;;;;;5116371;27;20053;-79
2021/12/29 06:42:01;;;;;;;221.18;38.05;;;;;;;;;;5109643;27;20039;-78
2021/12/29 06:44:27;;;;;;;278.70;42.25;;;;;;;;;;5108344;27;20031;-78
2021/12/29 06:46:53;;;;;;;226.73;38.97;;;;;;;;;;5098533;27;20394;-78
2021/12/29 06:49:19;;;;;;;229.35;37.80;;;;;;;;;;5109264;27;20074;-78
2021/12/29 06:51:45;;;;;;;247.77;39.53;;;;;;;;;;5106425;27;20047;-78
2021/12/29 06:54:11;;;;;;;270.67;41.00;;;;;;;;;;5125792;27;20426;-78
2021/12/29 06:56:37;;;;;;;237.15;39.13;;;;;;;;;;5112749;27;20047;-82
2021/12/29 06:59:03;;;;;;;232.98;36.72;;;;;;;;;;5117651;27;20039;-78
2021/12/29 07:01:29;;;;;;;278.63;40.97;;;;;;;;;;5118850;27;20154;-78
2021/12/29 07:03:55;;;;;;;298.00;40.05;;;;;;;;;;5120444;27;20038;-80
2021/12/29 07:06:21;;;;;;;286.42;40.35;;;;;;;;;;5142983;27;20045;-80
2021/12/29 07:08:47;;;;;;;241.95;39.75;;;;;;;;;;5115234;27;20054;-78
2021/12/29 07:11:13;;;;;;;317.88;39.88;;;;;;;;;;5112071;27;20088;-78
2021/12/29 07:13:41;;;;;;;186.25;33.97;;;;;;;;;;5121998;27;20039;-82
2021/12/29 07:16:07;;;;;;;238.60;37.85;;;;;;;;;;5101863;27;20478;-78
2021/12/29 07:18:33;;;;;;;213.07;34.92;;;;;;;;;;5120863;27;20453;-78
2021/12/29 07:20:59;;;;;;;194.15;35.53;;;;;;;;;;5121357;27;20588;-78
2021/12/29 07:23:25;;;;;;;194.13;35.30;;;;;;;;;;5118279;27;20116;-78
2021/12/29 07:25:51;;;;;;;161.95;31.73;;;;;;;;;;5105286;27;20035;-78
2021/12/29 07:28:17;;;;;;;161.82;31.25;;;;;;;;;;5103239;27;20115;-78
2021/12/29 07:30:43;;;;;;;172.13;31.02;;;;;;;;;;5127662;27;20066;-78
2021/12/29 07:33:09;;;;;;;155.82;31.17;;;;;;;;;;5105681;27;20051;-78
2021/12/29 07:35:35;;;;;;;147.43;28.33;;;;;;;;;;5124838;27;20458;-78
2021/12/29 07:38:02;;;;;;;189.48;40.08;;;;;;;;;;5090963;27;20044;-76
2021/12/29 07:40:28;;;;;;;146.40;30.92;;;;;;;;;;5114941;27;20498;-78
2021/12/29 07:42:54;;;;;;;142.93;28.95;;;;;;;;;;5157107;27;20043;-78
2021/12/29 07:45:21;;;;;;;205.63;33.78;;;;;;;;;;5135455;27;20043;-80
2021/12/29 07:47:49;;;;;;;175.50;31.95;;;;;;;;;;5118344;27;20340;-79
2021/12/29 07:50:19;;;;;;;235.82;35.35;;;;;;;;;;5113281;27;20046;-79
2021/12/29 07:52:48;;;;;;;211.77;34.95;;;;;;;;;;5129617;27;20045;-79
2021/12/29 07:55:18;;;;;;;199.45;34.33;;;;;;;;;;5130370;27;20489;-79
2021/12/29 07:57:45;;;;;;;195.60;34.58;;;;;;;;;;5129500;27;20053;-80
2021/12/29 08:00:12;;;;;;;198.88;34.53;;;;;;;;;;5131630;27;20062;-79
2021/12/29 08:02:39;;;;;;;192.15;33.60;;;;;;;;;;5100755;27;20035;-79
2021/12/29 08:05:06;;;;;;;235.15;36.20;;;;;;;;;;5117336;27;20060;-79
2021/12/29 08:07:33;;;;;;;309.88;41.13;;;;;;;;;;5115283;27;20146;-79
2021/12/29 08:09:59;;;;;;;177.00;32.92;;;;;;;;;;5117867;27;20049;-79
2021/12/29 08:12:26;;;;;;;291.73;40.58;;;;;;;;;;5130907;27;20046;-79
2021/12/29 08:14:52;;;;;;;289.30;39.08;;;;;;;;;;5119256;27;20078;-80
2021/12/29 08:17:18;;;;;;;292.67;39.33;;;;;;;;;;5142395;27;20049;-80
2021/12/29 08:19:45;;;;;;;285.52;38.22;;;;;;;;;;5106625;27;20168;-80
2021/12/29 08:22:12;;;;;;;250.80;35.92;;;;;;;;;;5111883;27;20039;-79
2021/12/29 08:24:38;;;;;;;310.98;37.50;;;;;;;;;;5128876;27;20057;-79
2021/12/29 08:27:05;;;;;;;288.13;36.20;;;;;;;;;;5132202;27;20061;-83
2021/12/29 08:29:31;;;;;;;358.52;40.00;;;;;;;;;;5132668;27;20095;-80
2021/12/29 08:31:58;;;;;;;352.63;36.90;;;;;;;;;;5113492;27;20082;-78
2021/12/29 08:34:25;;;;;;;381.77;37.90;;;;;;;;;;5115439;27;20212;-80
2021/12/29 08:36:52;;;;;;;342.52;37.17;;;;;;;;;;5098292;27;20110;-79
2021/12/29 08:39:19;;;;;;;303.17;33.47;;;;;;;;;;5119054;27;20060;-78
2021/12/29 08:41:49;;;;;;;247.73;32.00;;;;;;;;;;5131853;27;20041;-83
2021/12/29 08:44:16;;;;;;;276.90;31.88;;;;;;;;;;5113382;27;20500;-78
2021/12/29 08:46:42;;;;;;;282.40;31.95;;;;;;;;;;5113197;27;20133;-77
2021/12/29 08:49:09;;;;;;;274.75;30.38;;;;;;;;;;5126144;27;20544;-78
2021/12/29 08:51:35;;;;;;;249.70;30.63;;;;;;;;;;5100278;27;20087;-78
2021/12/29 08:54:02;;;;;;;247.52;29.55;;;;;;;;;;5093897;27;20066;-78
2021/12/29 08:56:28;;;;;;;335.25;32.75;;;;;;;;;;5113857;27;20042;-78
2021/12/29 08:58:55;;;;;;;287.98;31.73;;;;;;;;;;5102909;27;20083;-78
2021/12/29 09:01:24;;;;;;;504.17;40.20;;;;;;;;;;5133113;27;20103;-80
2021/12/29 09:03:51;;;;;;;472.00;39.63;;;;;;;;;;5123491;27;20070;-81
2021/12/29 09:06:17;;;;;;;370.23;37.03;;;;;;;;;;5129243;27;20060;-78
2021/12/29 09:08:44;;;;;;;329.65;35.05;;;;;;;;;;5114977;27;20122;-77
2021/12/29 09:11:11;;;;;;;386.30;38.35;;;;;;;;;;5094458;27;20043;-77
2021/12/29 09:13:38;;;;;;;367.58;37.58;;;;;;;;;;5112538;27;20485;-78
2021/12/29 09:16:05;;;;;;;420.63;39.83;;;;;;;;;;5116851;27;20039;-77
2021/12/29 09:18:33;;;;;;;488.10;43.42;;;;;;;;;;5130491;27;20049;-80
2021/12/29 09:21:12;;;;;;;449.10;39.33;;;;;;;;;;5114310;27;20489;-78
2021/12/29 09:23:39;;;;;;;366.05;36.03;;;;;;;;;;5140152;27;20057;-77
2021/12/29 09:26:06;;;;;;;301.90;33.47;;;;;;;;;;5114725;27;20474;-77
2021/12/29 09:28:33;;;;;;;276.40;32.92;;;;;;;;;;5128753;27;20049;-78
2021/12/29 09:30:59;;;;;;;179.00;27.27;;;;;;;;;;5121248;27;20047;-76
2021/12/29 09:33:26;;;;;;;209.65;27.42;;;;;;;;;;5116773;27;20120;-78
2021/12/29 09:35:57;;;;;;;225.55;29.40;;;;;;;;;;5094629;28;20048;-78
2021/12/29 09:38:24;;;;;;;209.23;28.65;;;;;;;;;;5092747;28;20097;-77
2021/12/29 09:40:50;;;;;;;174.93;26.67;;;;;;;;;;5094877;28;20134;-81
2021/12/29 09:43:18;;;;;;;181.70;27.85;;;;;;;;;;5089422;28;20055;-80
2021/12/29 09:45:45;;;;;;;210.90;29.23;;;;;;;;;;5104686;28;20071;-77
2021/12/29 09:48:12;;;;;;;213.43;29.27;;;;;;;;;;5107282;27;20430;-78
2021/12/29 09:50:39;;;;;;;188.55;28.10;;;;;;;;;;5110450;28;20555;-78
2021/12/29 09:53:06;;;;;;;201.15;29.20;;;;;;;;;;5111085;28;20405;-80
2021/12/29 09:55:33;;;;;;;153.00;26.20;;;;;;;;;;5092925;28;20475;-79
2021/12/29 09:58:00;;;;;;;134.00;25.45;;;;;;;;;;5094840;28;20061;-79
2021/12/29 10:00:33;;;;;;;155.88;25.83;;;;;;;;;;5094233;28;20177;-77
2021/12/29 10:03:01;;;;;;;124.43;23.75;;;;;;;;;;5093745;28;20486;-79
2021/12/29 10:05:28;;;;;;;120.72;24.17;;;;;;;;;;5110131;28;20047;-78
2021/12/29 10:08:06;;;;;;;89.28;21.98;;;;;;;;;;5094432;28;20478;-78
2021/12/29 10:10:34;;;;;;;96.13;21.52;;;;;;;;;;5093057;28;20139;-78
2021/12/29 10:13:00;;;;;;;99.03;22.38;;;;;;;;;;5091390;28;20064;-78
2021/12/29 10:15:31;;;;;;;97.38;22.30;;;;;;;;;;5107901;28;20040;-78
2021/12/29 10:18:06;;;;;;;79.25;21.98;;;;;;;;;;5109041;28;20092;-78
2021/12/29 10:20:32;;;;;;;86.93;23.05;;;;;;;;;;5109798;28;20394;-79
2021/12/29 10:22:59;;;;;;;74.57;20.73;;;;;;;;;;5094086;28;20043;-78
2021/12/29 10:25:26;;;;;;;68.90;21.25;;;;;;;;;;5108397;28;20051;-77
2021/12/29 10:27:53;;;;;;;76.47;20.70;;;;;;;;;;5109697;28;20044;-77
2021/12/29 10:30:27;;;;;;;61.33;19.23;;;;;;;;;;5109400;28;20206;-77
2021/12/29 10:32:59;;;;;;;76.25;20.75;;;;;;;;;;5116412;27;20062;-77
2021/12/29 10:35:29;;;;;;;86.15;22.27;;;;;;;;;;5118323;27;20044;-77
2021/12/29 10:38:08;;;;;;;70.50;23.85;;;;;;;;;;5121929;27;20075;-79
2021/12/29 10:40:35;;;;;;;72.75;21.83;;;;;;;;;;5129791;27;20085;-77
2021/12/29 10:43:01;;;;;;;79.47;21.80;;;;;;;;;;5110121;27;20082;-77
2021/12/29 10:45:35;;;;;;;75.13;19.55;;;;;;;;;;5124257;27;20043;-79
2021/12/29 10:48:02;;;;;;;52.58;19.25;;;;;;;;;;5108598;27;20140;-77
2021/12/29 10:50:29;;;;;;;52.15;16.23;;;;;;;;;;5086715;27;20130;-78
2021/12/29 10:52:58;;;;;;;59.47;18.58;;;;;;;;;;5099304;27;20035;-78
2021/12/29 10:55:32;;;;;;;70.30;19.42;;;;;;;;;;5126606;27;20046;-78
2021/12/29 10:58:01;;;;;;;49.92;17.60;;;;;;;;;;5124209;27;20043;-82
2021/12/29 11:00:27;;;;;;;56.25;21.45;;;;;;;;;;5124826;27;20419;-78
2021/12/29 11:02:57;;;;;;;62.70;23.27;;;;;;;;;;5121681;27;20445;-78
2021/12/29 11:05:23;;;;;;;63.03;23.13;;;;;;;;;;5124869;27;20432;-78
2021/12/29 11:07:49;;;;;;;60.95;22.25;;;;;;;;;;5105155;27;20512;-81
2021/12/29 11:10:16;;;;;;;55.95;20.90;;;;;;;;;;5089954;27;20430;-78
2021/12/29 11:12:54;;;;;;;58.50;21.63;;;;;;;;;;5100211;27;20412;-80
2021/12/29 11:15:21;;;;;;;63.42;22.48;;;;;;;;;;5123196;27;20398;-79
2021/12/29 11:17:47;;;;;;;59.78;21.02;;;;;;;;;;5116569;27;20449;-78
2021/12/29 11:20:18;;;;;;;62.20;21.60;;;;;;;;;;5106560;27;20417;-77
2021/12/29 11:22:44;;;;;;;64.18;23.52;;;;;;;;;;5126211;27;20765;-77
2021/12/29 11:25:10;;;;;;;59.07;22.80;;;;;;;;;;5107138;27;20446;-79
2021/12/29 11:27:36;;;;;;;74.65;24.33;;;;;;;;;;5119547;27;20509;-77
2021/12/29 11:30:08;;;;;;;68.20;24.63;;;;;;;;;;5105595;27;20425;-81
2021/12/29 11:32:39;;;;;;;57.67;22.30;;;;;;;;;;5110985;27;20427;-78
2021/12/29 11:35:13;;;;;;;60.38;22.02;;;;;;;;;;5109726;27;20895;-80
2021/12/29 11:37:47;;;;;;;62.17;23.70;;;;;;;;;;5115360;27;20525;-75
2021/12/29 11:40:17;;;;;;;71.28;26.33;;;;;;;;;;5109002;27;20456;-78
2021/12/29 11:42:43;;;;;;;63.47;23.13;;;;;;;;;;5109390;27;20435;-78
2021/12/29 11:45:10;;;;;;;68.18;23.15;;;;;;;;;;5106424;27;20414;-81
2021/12/29 11:47:36;;;;;;;75.20;24.77;;;;;;;;;;5121768;27;20417;-79
2021/12/29 11:50:04;;;;;;;64.80;23.63;;;;;;;;;;5122875;27;20405;-77
2021/12/29 11:52:48;;;;;;;62.38;21.42;;;;;;;;;;5106328;27;20431;-80
2021/12/29 11:55:16;;;;;;;57.13;20.30;;;;;;;;;;5117354;27;20536;-79
2021/12/29 11:57:43;;;;;;;44.85;17.15;;;;;;;;;;5113900;27;20471;-79
2021/12/29 12:00:09;;;;;;;45.75;17.08;;;;;;;;;;5131761;27;20417;-76
2021/12/29 12:02:35;;;;;;;53.25;15.88;;;;;;;;;;5109347;27;20941;-77
2021/12/29 12:05:12;;;;;;;48.05;17.40;;;;;;;;;;5161707;27;20818;-80
2021/12/29 12:07:38;;;;;;;43.15;14.95;;;;;;;;;;5111571;27;20982;-78
2021/12/29 12:10:09;;;;;;;38.33;12.38;;;;;;;;;;5128900;27;20401;-80
2021/12/29 12:12:42;;;;;;;34.78;13.50;;;;;;;;;;5131271;27;20444;-79
2021/12/29 12:15:08;;;;;;;29.80;9.85;;;;;;;;;;5132939;27;20102;-78
2021/12/29 12:17:35;;;;;;;31.10;8.32;;;;;;;;;;5127563;27;20051;-78
2021/12/29 12:20:05;;;;;;;23.77;8.60;;;;;;;;;;5124819;27;20109;-78
2021/12/29 12:22:40;;;;;;;22.48;8.45;;;;;;;;;;5134515;27;20111;-81
2021/12/29 12:25:07;;;;;;;35.67;9.52;;;;;;;;;;5127854;27;20046;-80
2021/12/29 12:27:38;;;;;;;34.53;8.35;;;;;;;;;;5127075;27;20074;-77
2021/12/29 12:30:15;;;;;;;43.78;9.68;;;;;;;;;;5114171;27;20042;-78
2021/12/29 12:32:41;;;;;;;27.20;7.75;;;;;;;;;;5120634;27;20047;-81
2021/12/29 12:35:07;;;;;;;33.63;8.18;;;;;;;;;;5087608;28;20372;-79
2021/12/29 12:37:38;;;;;;;26.17;8.07;;;;;;;;;;5073220;28;20542;-78
2021/12/29 12:40:07;;;;;;;25.35;8.55;;;;;;;;;;5086280;28;20047;-79
2021/12/29 12:42:34;;;;;;;33.65;9.05;;;;;;;;;;5132442;27;20486;-77
2021/12/29 12:45:00;;;;;;;24.48;8.13;;;;;;;;;;5071251;28;20046;-77
2021/12/29 12:47:31;;;;;;;32.63;9.40;;;;;;;;;;5106229;28;20046;-77
2021/12/29 12:49:57;;;;;;;32.08;9.75;;;;;;;;;;5088496;28;20491;-78
2021/12/29 12:52:25;;;;;;;22.55;9.00;;;;;;;;;;5102071;28;20039;-78
2021/12/29 12:54:50;;;;;;;;;;;;;;;;;;5083346;28;20035;-78
2021/12/29 12:57:16;;;;;;;;;;;;;;;;;;5082012;28;20049;-78
2021/12/29 12:59:42;;;;;;;;;;;;;;;;;;5086816;28;19998;-79
2021/12/29 13:02:08;;;;;;;;;;;;;;;;;;5086232;28;19926;-77
2021/12/29 13:04:34;;;;;;;;;;;;;;;;;;5104705;28;19971;-78
2021/12/29 13:07:00;;;;;;;;;;;;;;;;;;5090452;28;20373;-82
2021/12/29 13:09:26;;;;;;;;;;;;;;;;;;5107061;28;20021;-81
2021/12/29 13:11:52;;;;;;;;;;;;;;;;;;5089488;28;19920;-79
2021/12/29 13:14:18;;;;;;;;;;;;;;;;;;5105432;28;19930;-82
2021/12/29 13:16:44;;;;;;;;;;;;;;;;;;5087998;28;19919;-77
2021/12/29 13:19:10;;;;;;;;;;;;;;;;;;5104941;28;20049;-76
2021/12/29 13:21:36;;;;;;;;;;;;;;;;;;5104747;28;20005;-80
2021/12/29 13:24:02;;;;;;;;;;;;;;;;;;5088820;28;19942;-80
2021/12/29 13:26:28;;;;;;;;;;;;;;;;;;5091459;28;20374;-80
2021/12/29 13:28:54;;;;;;;;;;;;;;;;;;5089625;28;19928;-80
2021/12/29 13:31:20;;;;;;;;;;;;;;;;;;5089305;28;19920;-81
2021/12/29 13:33:46;;;;;;;;;;;;;;;;;;5091075;28;20014;-81
2021/12/29 13:36:12;;;;;;;;;;;;;;;;;;5089942;28;20015;-80
2021/12/29 13:38:38;;;;;;;;;;;;;;;;;;5121432;28;19963;-80
2021/12/29 13:41:04;;;;;;;;;;;;;;;;;;5102876;28;19923;-80
2021/12/29 13:43:30;;;;;;;;;;;;;;;;;;5084385;28;19942;-81
2021/12/29 13:45:56;;;;;;;;;;;;;;;;;;5105078;28;19919;-80
2021/12/29 13:48:22;;;;;;;;;;;;;;;;;;5087520;28;19920;-80
2021/12/29 13:50:48;;;;;;;;;;;;;;;;;;5088798;28;19924;-80
2021/12/29 13:53:14;;;;;;;;;;;;;;;;;;5090051;28;19926;-80
2021/12/29 13:55:40;;;;;;;;;;;;;;;;;;5088459;28;19919;-81
2021/12/29 13:58:06;;;;;;;;;;;;;;;;;;5090399;28;20373;-81
2021/12/29 14:00:32;;;;;;;;;;;;;;;;;;5084603;28;19920;-81
2021/12/29 14:02:58;;;;;;;;;;;;;;;;;;5084838;28;20490;-81
2021/12/29 14:05:24;;;;;;;;;;;;;;;;;;5106410;28;20415;-81
2021/12/29 14:07:50;;;;;;;;;;;;;;;;;;5090467;28;19916;-81
2021/12/29 14:10:16;;;;;;;;;;;;;;;;;;5090917;28;19980;-81
2021/12/29 14:12:42;;;;;;;;;;;;;;;;;;5088871;28;19923;-81
2021/12/29 14:15:08;;;;;;;;;;;;;;;;;;5091508;28;19982;-82
2021/12/29 14:17:34;;;;;;;;;;;;;;;;;;5087917;27;19927;-81
2021/12/29 14:20:00;;;;;;;;;;;;;;;;;;5089864;28;19953;-81
2021/12/29 14:22:26;;;;;;;;;;;;;;;;;;5091064;28;20027;-81
2021/12/29 14:24:52;;;;;;;;;;;;;;;;;;5094303;27;19920;-80
2021/12/29 14:27:18;;;;;;;;;;;;;;;;;;5094900;27;19924;-80
2021/12/29 14:29:44;;;;;;;;;;;;;;;;;;5093631;27;20278;-81